Current Weather

Yacuiba

Yacuiba, Bolivia (SLYA)

Report from: Saturday, February 4, 2023 9:00 AM -04
Current time: Sunday, February 5, 2023 1:31 AM -04

Nearby weather
Weather history
Weather forecast

Temperature24.0°C (75.2°F)
Dew point18.0°C (64.4°F)
Winds 5 kts (2.6 m/s, 5.8 mph) South-Southwest (210°)
Visibility6.2 mi. (10 km)
Clouds Few clouds 2,000 ft. (610 m)
Ceiling: Broken clouds 20,000 ft. (6,096 m)
Altimeter30.09 in.Hg (1019 mB)
Relative humidity69 %
Density altitude1,133 ft. (345 m)
Flight conditions Visual Meteorological Conditions
Raw dataSLYA 041300Z 21005KT 9999 FEW020 BKN200 24/18 Q1019
An unhandled exception has occurred. See browser dev tools for details. Reload 🗙